sensor_id;sensor_type;location;lat;lon;timestamp;P1;durP1;ratioP1;P2;durP2;ratioP2
18170;SDS011;9210;48.358;10.902;2023-06-14T00:01:45;7.93;;;4.20;;
18170;SDS011;9210;48.358;10.902;2023-06-14T00:04:15;11.30;;;3.90;;
18170;SDS011;9210;48.358;10.902;2023-06-14T00:06:47;8.97;;;4.77;;
18170;SDS011;9210;48.358;10.902;2023-06-14T00:09:17;8.53;;;5.07;;
18170;SDS011;9210;48.358;10.902;2023-06-14T00:11:47;8.93;;;4.43;;
18170;SDS011;9210;48.358;10.902;2023-06-14T00:14:17;9.37;;;4.40;;
18170;SDS011;9210;48.358;10.902;2023-06-14T00:16:46;9.40;;;4.73;;
18170;SDS011;9210;48.358;10.902;2023-06-14T00:19:19;6.70;;;4.27;;
18170;SDS011;9210;48.358;10.902;2023-06-14T00:21:48;11.80;;;4.70;;
18170;SDS011;9210;48.358;10.902;2023-06-14T00:24:21;9.87;;;5.00;;
18170;SDS011;9210;48.358;10.902;2023-06-14T00:26:51;11.10;;;6.10;;
18170;SDS011;9210;48.358;10.902;2023-06-14T00:29:21;9.93;;;5.97;;
18170;SDS011;9210;48.358;10.902;2023-06-14T00:31:50;10.90;;;5.30;;
18170;SDS011;9210;48.358;10.902;2023-06-14T00:34:19;8.07;;;4.83;;
18170;SDS011;9210;48.358;10.902;2023-06-14T00:36:47;10.60;;;5.00;;
18170;SDS011;9210;48.358;10.902;2023-06-14T00:39:16;7.53;;;4.60;;
18170;SDS011;9210;48.358;10.902;2023-06-14T00:41:45;9.93;;;4.77;;
18170;SDS011;9210;48.358;10.902;2023-06-14T00:44:15;10.90;;;5.13;;
18170;SDS011;9210;48.358;10.902;2023-06-14T00:46:45;9.20;;;4.77;;
18170;SDS011;9210;48.358;10.902;2023-06-14T00:49:14;9.47;;;4.53;;
18170;SDS011;9210;48.358;10.902;2023-06-14T00:51:43;7.07;;;4.03;;
18170;SDS011;9210;48.358;10.902;2023-06-14T00:54:13;8.37;;;4.17;;
18170;SDS011;9210;48.358;10.902;2023-06-14T00:56:42;8.27;;;4.20;;
18170;SDS011;9210;48.358;10.902;2023-06-14T00:59:11;6.90;;;3.83;;
18170;SDS011;9210;48.358;10.902;2023-06-14T01:01:48;6.83;;;4.00;;
18170;SDS011;9210;48.358;10.902;2023-06-14T01:04:22;7.17;;;4.50;;
18170;SDS011;9210;48.358;10.902;2023-06-14T01:06:53;7.37;;;4.20;;
18170;SDS011;9210;48.358;10.902;2023-06-14T01:09:31;11.90;;;4.63;;
18170;SDS011;9210;48.358;10.902;2023-06-14T01:12:07;7.87;;;4.47;;
18170;SDS011;9210;48.358;10.902;2023-06-14T01:14:38;8.93;;;4.50;;
18170;SDS011;9210;48.358;10.902;2023-06-14T01:17:09;7.83;;;4.00;;
18170;SDS011;9210;48.358;10.902;2023-06-14T01:19:43;7.23;;;4.33;;
18170;SDS011;9210;48.358;10.902;2023-06-14T01:22:13;9.00;;;4.80;;
18170;SDS011;9210;48.358;10.902;2023-06-14T01:24:44;6.53;;;4.40;;
18170;SDS011;9210;48.358;10.902;2023-06-14T01:27:12;10.57;;;4.83;;
18170;SDS011;9210;48.358;10.902;2023-06-14T01:29:42;9.20;;;4.60;;
18170;SDS011;9210;48.358;10.902;2023-06-14T01:32:14;9.37;;;4.33;;
18170;SDS011;9210;48.358;10.902;2023-06-14T01:34:44;9.77;;;4.67;;
18170;SDS011;9210;48.358;10.902;2023-06-14T01:37:16;13.03;;;5.63;;
18170;SDS011;9210;48.358;10.902;2023-06-14T01:39:49;8.00;;;4.80;;
18170;SDS011;9210;48.358;10.902;2023-06-14T01:42:23;7.47;;;4.80;;
18170;SDS011;9210;48.358;10.902;2023-06-14T01:44:54;8.57;;;4.27;;
18170;SDS011;9210;48.358;10.902;2023-06-14T01:47:27;7.27;;;4.50;;
18170;SDS011;9210;48.358;10.902;2023-06-14T01:50:09;7.10;;;4.27;;
18170;SDS011;9210;48.358;10.902;2023-06-14T01:52:39;8.10;;;4.43;;
18170;SDS011;9210;48.358;10.902;2023-06-14T01:55:11;10.50;;;4.60;;
18170;SDS011;9210;48.358;10.902;2023-06-14T01:57:40;8.37;;;4.27;;
18170;SDS011;9210;48.358;10.902;2023-06-14T02:00:10;7.90;;;4.40;;
18170;SDS011;9210;48.358;10.902;2023-06-14T02:02:40;10.70;;;5.37;;
18170;SDS011;9210;48.358;10.902;2023-06-14T02:05:09;8.53;;;4.43;;
18170;SDS011;9210;48.358;10.902;2023-06-14T02:07:40;10.60;;;4.60;;
18170;SDS011;9210;48.358;10.902;2023-06-14T02:10:11;8.73;;;4.53;;
18170;SDS011;9210;48.358;10.902;2023-06-14T02:12:42;10.83;;;4.97;;
18170;SDS011;9210;48.358;10.902;2023-06-14T02:15:11;10.37;;;5.00;;
18170;SDS011;9210;48.358;10.902;2023-06-14T02:17:43;7.63;;;4.77;;
18170;SDS011;9210;48.358;10.902;2023-06-14T02:20:16;7.30;;;4.67;;
18170;SDS011;9210;48.358;10.902;2023-06-14T02:22:44;7.83;;;4.80;;
18170;SDS011;9210;48.358;10.902;2023-06-14T02:25:14;8.93;;;4.73;;
18170;SDS011;9210;48.358;10.902;2023-06-14T02:27:43;8.53;;;4.77;;
18170;SDS011;9210;48.358;10.902;2023-06-14T02:30:15;12.07;;;4.90;;
18170;SDS011;9210;48.358;10.902;2023-06-14T02:32:44;10.67;;;4.93;;
18170;SDS011;9210;48.358;10.902;2023-06-14T02:35:17;11.73;;;4.53;;
18170;SDS011;9210;48.358;10.902;2023-06-14T02:37:47;14.93;;;4.93;;
18170;SDS011;9210;48.358;10.902;2023-06-14T02:40:20;7.97;;;4.77;;
18170;SDS011;9210;48.358;10.902;2023-06-14T02:42:49;8.77;;;4.17;;
18170;SDS011;9210;48.358;10.902;2023-06-14T02:45:20;9.07;;;5.00;;
18170;SDS011;9210;48.358;10.902;2023-06-14T02:47:54;8.97;;;4.60;;
18170;SDS011;9210;48.358;10.902;2023-06-14T02:50:26;10.57;;;4.80;;
18170;SDS011;9210;48.358;10.902;2023-06-14T02:52:58;8.40;;;4.77;;
18170;SDS011;9210;48.358;10.902;2023-06-14T02:55:36;10.50;;;4.63;;
18170;SDS011;9210;48.358;10.902;2023-06-14T02:58:07;10.27;;;5.07;;
18170;SDS011;9210;48.358;10.902;2023-06-14T03:00:36;9.63;;;5.10;;
18170;SDS011;9210;48.358;10.902;2023-06-14T03:03:08;10.17;;;4.57;;
18170;SDS011;9210;48.358;10.902;2023-06-14T03:05:50;8.90;;;4.80;;
18170;SDS011;9210;48.358;10.902;2023-06-14T03:08:29;10.67;;;5.30;;
18170;SDS011;9210;48.358;10.902;2023-06-14T03:11:11;10.90;;;5.33;;
18170;SDS011;9210;48.358;10.902;2023-06-14T03:13:40;10.03;;;5.43;;
18170;SDS011;9210;48.358;10.902;2023-06-14T03:16:11;13.00;;;5.23;;
18170;SDS011;9210;48.358;10.902;2023-06-14T03:18:46;13.97;;;5.67;;
18170;SDS011;9210;48.358;10.902;2023-06-14T03:21:15;11.33;;;4.80;;
18170;SDS011;9210;48.358;10.902;2023-06-14T03:23:49;10.97;;;5.37;;
18170;SDS011;9210;48.358;10.902;2023-06-14T03:26:22;9.60;;;4.77;;
18170;SDS011;9210;48.358;10.902;2023-06-14T03:28:54;10.10;;;4.90;;
18170;SDS011;9210;48.358;10.902;2023-06-14T03:31:23;12.57;;;5.40;;
18170;SDS011;9210;48.358;10.902;2023-06-14T03:33:52;12.40;;;5.20;;
18170;SDS011;9210;48.358;10.902;2023-06-14T03:39:05;10.03;;;5.13;;
18170;SDS011;9210;48.358;10.902;2023-06-14T03:41:36;10.80;;;5.07;;
18170;SDS011;9210;48.358;10.902;2023-06-14T03:44:04;7.43;;;5.07;;
18170;SDS011;9210;48.358;10.902;2023-06-14T03:46:35;8.03;;;5.13;;
18170;SDS011;9210;48.358;10.902;2023-06-14T03:49:04;10.07;;;5.50;;
18170;SDS011;9210;48.358;10.902;2023-06-14T03:51:33;11.00;;;5.40;;
18170;SDS011;9210;48.358;10.902;2023-06-14T03:54:02;9.17;;;5.33;;
18170;SDS011;9210;48.358;10.902;2023-06-14T03:59:52;11.00;;;5.23;;
18170;SDS011;9210;48.358;10.902;2023-06-14T04:02:22;13.03;;;5.87;;
18170;SDS011;9210;48.358;10.902;2023-06-14T04:04:50;9.23;;;5.30;;
18170;SDS011;9210;48.358;10.902;2023-06-14T04:07:24;13.17;;;5.77;;
18170;SDS011;9210;48.358;10.902;2023-06-14T04:10:09;8.50;;;5.03;;
18170;SDS011;9210;48.358;10.902;2023-06-14T04:12:41;10.03;;;5.83;;
18170;SDS011;9210;48.358;10.902;2023-06-14T04:15:11;10.90;;;6.13;;
18170;SDS011;9210;48.358;10.902;2023-06-14T04:17:49;10.57;;;5.27;;
18170;SDS011;9210;48.358;10.902;2023-06-14T04:20:21;11.40;;;5.70;;
18170;SDS011;9210;48.358;10.902;2023-06-14T04:22:52;9.43;;;5.70;;
18170;SDS011;9210;48.358;10.902;2023-06-14T04:25:24;9.33;;;5.73;;
18170;SDS011;9210;48.358;10.902;2023-06-14T04:27:55;9.30;;;5.37;;
18170;SDS011;9210;48.358;10.902;2023-06-14T04:30:27;13.10;;;6.07;;
18170;SDS011;9210;48.358;10.902;2023-06-14T04:32:59;14.47;;;6.20;;
18170;SDS011;9210;48.358;10.902;2023-06-14T04:35:32;11.87;;;6.23;;
18170;SDS011;9210;48.358;10.902;2023-06-14T04:38:04;9.10;;;6.00;;
18170;SDS011;9210;48.358;10.902;2023-06-14T04:40:37;10.90;;;6.30;;
18170;SDS011;9210;48.358;10.902;2023-06-14T04:43:13;12.13;;;6.03;;
18170;SDS011;9210;48.358;10.902;2023-06-14T04:45:47;12.93;;;6.20;;
18170;SDS011;9210;48.358;10.902;2023-06-14T04:48:16;10.70;;;6.33;;
18170;SDS011;9210;48.358;10.902;2023-06-14T04:50:47;13.53;;;6.43;;
18170;SDS011;9210;48.358;10.902;2023-06-14T04:53:23;12.43;;;6.40;;
18170;SDS011;9210;48.358;10.902;2023-06-14T04:55:56;9.27;;;6.17;;
18170;SDS011;9210;48.358;10.902;2023-06-14T04:58:25;13.57;;;6.00;;
18170;SDS011;9210;48.358;10.902;2023-06-14T05:00:56;11.67;;;5.77;;
18170;SDS011;9210;48.358;10.902;2023-06-14T05:03:27;10.27;;;6.13;;
18170;SDS011;9210;48.358;10.902;2023-06-14T05:05:57;11.70;;;5.80;;
18170;SDS011;9210;48.358;10.902;2023-06-14T05:08:27;12.47;;;6.50;;
18170;SDS011;9210;48.358;10.902;2023-06-14T05:10:57;8.17;;;5.80;;
18170;SDS011;9210;48.358;10.902;2023-06-14T05:16:01;14.40;;;6.03;;
18170;SDS011;9210;48.358;10.902;2023-06-14T05:21:29;12.90;;;6.10;;
18170;SDS011;9210;48.358;10.902;2023-06-14T05:24:03;11.43;;;6.50;;
18170;SDS011;9210;48.358;10.902;2023-06-14T05:32:24;10.87;;;5.80;;
18170;SDS011;9210;48.358;10.902;2023-06-14T05:34:57;10.00;;;4.77;;
18170;SDS011;9210;48.358;10.902;2023-06-14T05:37:26;11.70;;;4.90;;
18170;SDS011;9210;48.358;10.902;2023-06-14T05:39:57;8.27;;;4.37;;
18170;SDS011;9210;48.358;10.902;2023-06-14T05:42:27;15.30;;;5.33;;
18170;SDS011;9210;48.358;10.902;2023-06-14T05:44:56;11.43;;;4.97;;
18170;SDS011;9210;48.358;10.902;2023-06-14T05:47:29;7.67;;;4.97;;
18170;SDS011;9210;48.358;10.902;2023-06-14T05:50:00;9.53;;;4.33;;
18170;SDS011;9210;48.358;10.902;2023-06-14T05:52:33;9.10;;;4.73;;
18170;SDS011;9210;48.358;10.902;2023-06-14T05:55:03;9.50;;;4.83;;
18170;SDS011;9210;48.358;10.902;2023-06-14T05:57:33;9.40;;;4.60;;
18170;SDS011;9210;48.358;10.902;2023-06-14T06:00:02;7.90;;;4.17;;
18170;SDS011;9210;48.358;10.902;2023-06-14T06:02:39;10.57;;;4.70;;
18170;SDS011;9210;48.358;10.902;2023-06-14T06:05:08;9.43;;;4.83;;
18170;SDS011;9210;48.358;10.902;2023-06-14T06:07:37;7.83;;;4.67;;
18170;SDS011;9210;48.358;10.902;2023-06-14T06:10:07;9.27;;;4.50;;
18170;SDS011;9210;48.358;10.902;2023-06-14T06:18:23;8.63;;;4.43;;
18170;SDS011;9210;48.358;10.902;2023-06-14T06:20:52;9.23;;;4.37;;
18170;SDS011;9210;48.358;10.902;2023-06-14T06:23:22;8.33;;;4.60;;
18170;SDS011;9210;48.358;10.902;2023-06-14T06:25:51;9.37;;;4.53;;
18170;SDS011;9210;48.358;10.902;2023-06-14T06:28:34;10.17;;;5.23;;
18170;SDS011;9210;48.358;10.902;2023-06-14T06:31:04;7.63;;;4.23;;
18170;SDS011;9210;48.358;10.902;2023-06-14T06:42:24;8.97;;;4.10;;
18170;SDS011;9210;48.358;10.902;2023-06-14T06:45:01;11.70;;;4.37;;
18170;SDS011;9210;48.358;10.902;2023-06-14T06:47:36;7.57;;;4.13;;
18170;SDS011;9210;48.358;10.902;2023-06-14T06:50:05;7.97;;;4.43;;
18170;SDS011;9210;48.358;10.902;2023-06-14T06:52:35;11.80;;;4.60;;
18170;SDS011;9210;48.358;10.902;2023-06-14T06:55:03;9.50;;;4.90;;
18170;SDS011;9210;48.358;10.902;2023-06-14T06:57:34;8.45;;;4.85;;
18170;SDS011;9210;48.358;10.902;2023-06-14T07:02:44;7.53;;;4.43;;
18170;SDS011;9210;48.358;10.902;2023-06-14T07:05:24;12.93;;;4.10;;
18170;SDS011;9210;48.358;10.902;2023-06-14T07:07:52;11.93;;;4.85;;
18170;SDS011;9210;48.358;10.902;2023-06-14T07:10:24;11.37;;;4.33;;
18170;SDS011;9210;48.358;10.902;2023-06-14T07:12:55;6.13;;;3.90;;
18170;SDS011;9210;48.358;10.902;2023-06-14T07:15:24;9.15;;;3.65;;
18170;SDS011;9210;48.358;10.902;2023-06-14T07:17:53;6.07;;;3.60;;
18170;SDS011;9210;48.358;10.902;2023-06-14T07:20:26;9.02;;;4.03;;
18170;SDS011;9210;48.358;10.902;2023-06-14T07:22:56;7.55;;;4.13;;
18170;SDS011;9210;48.358;10.902;2023-06-14T07:25:27;10.30;;;3.72;;
18170;SDS011;9210;48.358;10.902;2023-06-14T07:27:57;11.45;;;3.85;;
18170;SDS011;9210;48.358;10.902;2023-06-14T07:30:28;6.78;;;3.78;;
18170;SDS011;9210;48.358;10.902;2023-06-14T07:32:57;7.65;;;3.75;;
18170;SDS011;9210;48.358;10.902;2023-06-14T07:35:28;8.25;;;4.13;;
18170;SDS011;9210;48.358;10.902;2023-06-14T07:38:08;8.65;;;3.78;;
18170;SDS011;9210;48.358;10.902;2023-06-14T07:40:41;10.75;;;4.07;;
18170;SDS011;9210;48.358;10.902;2023-06-14T07:54:36;7.85;;;3.20;;
18170;SDS011;9210;48.358;10.902;2023-06-14T07:57:06;5.97;;;3.28;;
18170;SDS011;9210;48.358;10.902;2023-06-14T07:59:35;7.18;;;3.45;;
18170;SDS011;9210;48.358;10.902;2023-06-14T08:02:04;7.32;;;3.28;;
18170;SDS011;9210;48.358;10.902;2023-06-14T08:04:33;7.47;;;3.45;;
18170;SDS011;9210;48.358;10.902;2023-06-14T08:07:03;7.38;;;3.28;;
18170;SDS011;9210;48.358;10.902;2023-06-14T08:09:36;6.75;;;3.30;;
18170;SDS011;9210;48.358;10.902;2023-06-14T08:12:09;5.82;;;3.45;;
18170;SDS011;9210;48.358;10.902;2023-06-14T08:14:42;4.88;;;3.17;;
18170;SDS011;9210;48.358;10.902;2023-06-14T08:17:14;6.18;;;3.13;;
18170;SDS011;9210;48.358;10.902;2023-06-14T08:19:46;6.50;;;2.97;;
18170;SDS011;9210;48.358;10.902;2023-06-14T08:22:24;7.07;;;3.20;;
18170;SDS011;9210;48.358;10.902;2023-06-14T08:25:47;6.28;;;3.33;;
18170;SDS011;9210;48.358;10.902;2023-06-14T08:28:24;4.78;;;3.05;;
18170;SDS011;9210;48.358;10.902;2023-06-14T08:30:55;7.78;;;3.05;;
18170;SDS011;9210;48.358;10.902;2023-06-14T08:36:13;5.63;;;2.72;;
18170;SDS011;9210;48.358;10.902;2023-06-14T08:38:54;7.38;;;3.38;;
18170;SDS011;9210;48.358;10.902;2023-06-14T08:41:24;7.47;;;3.25;;
18170;SDS011;9210;48.358;10.902;2023-06-14T08:49:56;5.35;;;3.00;;
18170;SDS011;9210;48.358;10.902;2023-06-14T08:52:31;6.85;;;3.42;;
18170;SDS011;9210;48.358;10.902;2023-06-14T08:55:07;6.18;;;2.95;;
18170;SDS011;9210;48.358;10.902;2023-06-14T08:57:38;5.10;;;3.05;;
18170;SDS011;9210;48.358;10.902;2023-06-14T09:00:08;8.35;;;3.30;;
18170;SDS011;9210;48.358;10.902;2023-06-14T09:02:40;5.18;;;3.10;;
18170;SDS011;9210;48.358;10.902;2023-06-14T09:05:10;10.07;;;3.33;;
18170;SDS011;9210;48.358;10.902;2023-06-14T09:07:40;8.52;;;2.83;;
18170;SDS011;9210;48.358;10.902;2023-06-14T09:10:14;5.53;;;2.80;;
18170;SDS011;9210;48.358;10.902;2023-06-14T09:13:02;6.25;;;3.10;;
18170;SDS011;9210;48.358;10.902;2023-06-14T09:15:31;7.63;;;3.00;;
18170;SDS011;9210;48.358;10.902;2023-06-14T09:18:01;6.90;;;2.70;;
18170;SDS011;9210;48.358;10.902;2023-06-14T09:23:20;7.10;;;3.03;;
18170;SDS011;9210;48.358;10.902;2023-06-14T09:25:49;5.22;;;2.83;;
18170;SDS011;9210;48.358;10.902;2023-06-14T09:28:20;5.40;;;2.78;;
18170;SDS011;9210;48.358;10.902;2023-06-14T09:30:55;6.30;;;2.80;;
18170;SDS011;9210;48.358;10.902;2023-06-14T09:33:25;5.35;;;2.55;;
18170;SDS011;9210;48.358;10.902;2023-06-14T09:35:54;5.57;;;2.72;;
18170;SDS011;9210;48.358;10.902;2023-06-14T09:38:23;6.20;;;3.00;;
18170;SDS011;9210;48.358;10.902;2023-06-14T09:40:55;4.22;;;2.50;;
18170;SDS011;9210;48.358;10.902;2023-06-14T09:43:26;5.47;;;2.90;;
18170;SDS011;9210;48.358;10.902;2023-06-14T09:45:56;6.60;;;2.50;;
18170;SDS011;9210;48.358;10.902;2023-06-14T09:48:25;6.70;;;3.67;;
18170;SDS011;9210;48.358;10.902;2023-06-14T09:50:54;5.63;;;2.72;;
18170;SDS011;9210;48.358;10.902;2023-06-14T09:53:23;6.05;;;2.80;;
18170;SDS011;9210;48.358;10.902;2023-06-14T09:55:52;4.80;;;2.72;;
18170;SDS011;9210;48.358;10.902;2023-06-14T09:58:23;4.47;;;2.67;;
18170;SDS011;9210;48.358;10.902;2023-06-14T10:00:53;4.25;;;2.63;;
18170;SDS011;9210;48.358;10.902;2023-06-14T10:03:24;4.60;;;2.70;;
18170;SDS011;9210;48.358;10.902;2023-06-14T10:06:02;5.10;;;2.95;;
18170;SDS011;9210;48.358;10.902;2023-06-14T10:08:31;6.68;;;3.35;;
18170;SDS011;9210;48.358;10.902;2023-06-14T10:11:00;6.38;;;2.63;;
18170;SDS011;9210;48.358;10.902;2023-06-14T10:13:31;6.40;;;2.95;;
18170;SDS011;9210;48.358;10.902;2023-06-14T10:16:05;13.38;;;3.45;;
18170;SDS011;9210;48.358;10.902;2023-06-14T10:18:39;4.55;;;2.75;;
18170;SDS011;9210;48.358;10.902;2023-06-14T10:21:13;5.50;;;2.60;;
18170;SDS011;9210;48.358;10.902;2023-06-14T10:23:42;5.45;;;2.38;;
18170;SDS011;9210;48.358;10.902;2023-06-14T10:26:17;17.33;;;3.03;;
18170;SDS011;9210;48.358;10.902;2023-06-14T10:28:55;7.47;;;3.00;;
18170;SDS011;9210;48.358;10.902;2023-06-14T10:31:39;6.28;;;2.67;;
18170;SDS011;9210;48.358;10.902;2023-06-14T10:34:09;4.50;;;2.50;;
18170;SDS011;9210;48.358;10.902;2023-06-14T10:36:38;7.22;;;3.13;;
18170;SDS011;9210;48.358;10.902;2023-06-14T10:39:10;5.15;;;3.00;;
18170;SDS011;9210;48.358;10.902;2023-06-14T10:41:39;5.00;;;2.75;;
18170;SDS011;9210;48.358;10.902;2023-06-14T10:46:57;4.20;;;2.88;;
18170;SDS011;9210;48.358;10.902;2023-06-14T10:49:36;6.32;;;3.10;;
18170;SDS011;9210;48.358;10.902;2023-06-14T10:52:09;4.45;;;2.80;;
18170;SDS011;9210;48.358;10.902;2023-06-14T10:55:04;5.75;;;2.85;;
18170;SDS011;9210;48.358;10.902;2023-06-14T10:57:36;7.22;;;2.75;;
18170;SDS011;9210;48.358;10.902;2023-06-14T11:00:17;6.03;;;2.75;;
18170;SDS011;9210;48.358;10.902;2023-06-14T11:05:49;7.05;;;3.05;;
18170;SDS011;9210;48.358;10.902;2023-06-14T11:08:40;4.15;;;2.63;;
18170;SDS011;9210;48.358;10.902;2023-06-14T11:11:18;5.25;;;2.83;;
18170;SDS011;9210;48.358;10.902;2023-06-14T11:13:53;11.20;;;2.90;;
18170;SDS011;9210;48.358;10.902;2023-06-14T11:16:22;4.45;;;2.83;;
18170;SDS011;9210;48.358;10.902;2023-06-14T11:18:54;5.85;;;2.88;;
18170;SDS011;9210;48.358;10.902;2023-06-14T11:21:25;4.68;;;3.13;;
18170;SDS011;9210;48.358;10.902;2023-06-14T11:23:57;8.18;;;3.20;;
18170;SDS011;9210;48.358;10.902;2023-06-14T11:26:26;5.28;;;2.80;;
18170;SDS011;9210;48.358;10.902;2023-06-14T11:28:56;6.30;;;2.67;;
18170;SDS011;9210;48.358;10.902;2023-06-14T11:31:25;4.05;;;3.03;;
18170;SDS011;9210;48.358;10.902;2023-06-14T11:33:54;7.18;;;3.05;;
18170;SDS011;9210;48.358;10.902;2023-06-14T11:36:28;5.47;;;2.72;;
18170;SDS011;9210;48.358;10.902;2023-06-14T11:38:58;4.55;;;3.03;;
18170;SDS011;9210;48.358;10.902;2023-06-14T11:41:38;4.75;;;3.08;;
18170;SDS011;9210;48.358;10.902;2023-06-14T11:44:07;5.75;;;3.00;;
18170;SDS011;9210;48.358;10.902;2023-06-14T11:46:35;5.38;;;3.25;;
18170;SDS011;9210;48.358;10.902;2023-06-14T11:49:04;8.18;;;3.10;;
18170;SDS011;9210;48.358;10.902;2023-06-14T11:51:35;5.30;;;2.70;;
18170;SDS011;9210;48.358;10.902;2023-06-14T11:54:04;9.43;;;3.03;;
18170;SDS011;9210;48.358;10.902;2023-06-14T11:56:36;5.95;;;2.78;;
18170;SDS011;9210;48.358;10.902;2023-06-14T11:59:04;6.00;;;2.42;;
18170;SDS011;9210;48.358;10.902;2023-06-14T12:01:37;5.10;;;2.80;;
18170;SDS011;9210;48.358;10.902;2023-06-14T12:04:06;4.55;;;2.97;;
18170;SDS011;9210;48.358;10.902;2023-06-14T12:06:36;7.43;;;2.97;;
18170;SDS011;9210;48.358;10.902;2023-06-14T12:09:08;6.43;;;2.88;;
18170;SDS011;9210;48.358;10.902;2023-06-14T12:11:40;6.25;;;2.95;;
18170;SDS011;9210;48.358;10.902;2023-06-14T12:14:09;6.15;;;3.03;;
18170;SDS011;9210;48.358;10.902;2023-06-14T12:16:38;5.40;;;2.60;;
18170;SDS011;9210;48.358;10.902;2023-06-14T12:19:08;5.45;;;2.88;;
18170;SDS011;9210;48.358;10.902;2023-06-14T12:21:39;7.05;;;2.85;;
18170;SDS011;9210;48.358;10.902;2023-06-14T12:24:09;6.45;;;2.80;;
18170;SDS011;9210;48.358;10.902;2023-06-14T12:26:40;6.72;;;3.25;;
18170;SDS011;9210;48.358;10.902;2023-06-14T12:29:09;5.25;;;2.95;;
18170;SDS011;9210;48.358;10.902;2023-06-14T12:31:39;5.80;;;2.75;;
18170;SDS011;9210;48.358;10.902;2023-06-14T12:34:09;4.43;;;2.65;;
18170;SDS011;9210;48.358;10.902;2023-06-14T12:36:39;5.57;;;2.97;;
18170;SDS011;9210;48.358;10.902;2023-06-14T12:39:13;6.38;;;2.70;;
18170;SDS011;9210;48.358;10.902;2023-06-14T12:41:45;6.05;;;2.95;;
18170;SDS011;9210;48.358;10.902;2023-06-14T12:44:14;5.90;;;2.90;;
18170;SDS011;9210;48.358;10.902;2023-06-14T12:46:45;7.55;;;3.13;;
18170;SDS011;9210;48.358;10.902;2023-06-14T12:49:14;5.63;;;2.95;;
18170;SDS011;9210;48.358;10.902;2023-06-14T12:51:47;7.22;;;2.70;;
18170;SDS011;9210;48.358;10.902;2023-06-14T12:54:20;6.70;;;3.03;;
18170;SDS011;9210;48.358;10.902;2023-06-14T12:57:10;4.95;;;2.78;;
18170;SDS011;9210;48.358;10.902;2023-06-14T12:59:39;5.78;;;3.00;;
18170;SDS011;9210;48.358;10.902;2023-06-14T13:02:12;4.05;;;2.67;;
18170;SDS011;9210;48.358;10.902;2023-06-14T13:04:41;6.95;;;3.00;;
18170;SDS011;9210;48.358;10.902;2023-06-14T13:07:12;9.60;;;3.30;;
18170;SDS011;9210;48.358;10.902;2023-06-14T13:09:41;7.80;;;2.70;;
18170;SDS011;9210;48.358;10.902;2023-06-14T13:12:14;11.95;;;3.58;;
18170;SDS011;9210;48.358;10.902;2023-06-14T13:14:46;3.85;;;2.53;;
18170;SDS011;9210;48.358;10.902;2023-06-14T13:17:15;5.00;;;2.53;;
18170;SDS011;9210;48.358;10.902;2023-06-14T13:19:43;6.55;;;2.90;;
18170;SDS011;9210;48.358;10.902;2023-06-14T13:22:18;7.95;;;2.92;;
18170;SDS011;9210;48.358;10.902;2023-06-14T13:24:47;4.40;;;2.50;;
18170;SDS011;9210;48.358;10.902;2023-06-14T13:27:15;6.68;;;2.80;;
18170;SDS011;9210;48.358;10.902;2023-06-14T13:29:44;4.53;;;2.90;;
18170;SDS011;9210;48.358;10.902;2023-06-14T13:32:14;5.20;;;3.00;;
18170;SDS011;9210;48.358;10.902;2023-06-14T13:37:44;7.53;;;3.08;;
18170;SDS011;9210;48.358;10.902;2023-06-14T13:40:13;5.38;;;3.00;;
18170;SDS011;9210;48.358;10.902;2023-06-14T13:42:46;5.30;;;3.15;;
18170;SDS011;9210;48.358;10.902;2023-06-14T13:45:16;6.00;;;2.65;;
18170;SDS011;9210;48.358;10.902;2023-06-14T13:47:46;8.48;;;3.13;;
18170;SDS011;9210;48.358;10.902;2023-06-14T13:50:15;11.02;;;3.10;;
18170;SDS011;9210;48.358;10.902;2023-06-14T13:52:48;4.97;;;2.70;;
18170;SDS011;9210;48.358;10.902;2023-06-14T13:55:17;6.40;;;2.88;;
18170;SDS011;9210;48.358;10.902;2023-06-14T13:57:47;6.93;;;3.00;;
18170;SDS011;9210;48.358;10.902;2023-06-14T14:00:16;6.88;;;2.65;;
18170;SDS011;9210;48.358;10.902;2023-06-14T14:02:49;6.95;;;2.80;;
18170;SDS011;9210;48.358;10.902;2023-06-14T14:05:18;6.20;;;3.17;;
18170;SDS011;9210;48.358;10.902;2023-06-14T14:07:48;12.95;;;3.03;;
18170;SDS011;9210;48.358;10.902;2023-06-14T14:10:18;7.53;;;3.05;;
18170;SDS011;9210;48.358;10.902;2023-06-14T14:12:48;5.13;;;3.17;;
18170;SDS011;9210;48.358;10.902;2023-06-14T14:15:17;4.88;;;2.80;;
18170;SDS011;9210;48.358;10.902;2023-06-14T14:17:46;5.43;;;2.70;;
18170;SDS011;9210;48.358;10.902;2023-06-14T14:26:19;5.30;;;3.03;;
18170;SDS011;9210;48.358;10.902;2023-06-14T14:28:48;4.60;;;2.80;;
18170;SDS011;9210;48.358;10.902;2023-06-14T14:31:17;4.03;;;2.60;;
18170;SDS011;9210;48.358;10.902;2023-06-14T14:33:46;4.20;;;2.95;;
18170;SDS011;9210;48.358;10.902;2023-06-14T14:36:15;8.10;;;3.28;;
18170;SDS011;9210;48.358;10.902;2023-06-14T14:38:44;6.30;;;2.70;;
18170;SDS011;9210;48.358;10.902;2023-06-14T14:41:15;10.98;;;3.00;;
18170;SDS011;9210;48.358;10.902;2023-06-14T14:43:45;4.93;;;2.85;;
18170;SDS011;9210;48.358;10.902;2023-06-14T14:46:14;7.30;;;3.05;;
18170;SDS011;9210;48.358;10.902;2023-06-14T14:48:43;3.67;;;2.45;;
18170;SDS011;9210;48.358;10.902;2023-06-14T14:54:06;5.35;;;3.13;;
18170;SDS011;9210;48.358;10.902;2023-06-14T14:56:43;5.07;;;2.70;;
18170;SDS011;9210;48.358;10.902;2023-06-14T14:59:14;4.93;;;2.80;;
18170;SDS011;9210;48.358;10.902;2023-06-14T15:01:42;6.70;;;3.30;;
18170;SDS011;9210;48.358;10.902;2023-06-14T15:04:12;7.10;;;3.60;;
18170;SDS011;9210;48.358;10.902;2023-06-14T15:06:40;6.55;;;3.20;;
18170;SDS011;9210;48.358;10.902;2023-06-14T15:09:09;6.97;;;2.90;;
18170;SDS011;9210;48.358;10.902;2023-06-14T15:11:38;6.60;;;2.88;;
18170;SDS011;9210;48.358;10.902;2023-06-14T15:14:12;4.95;;;2.83;;
18170;SDS011;9210;48.358;10.902;2023-06-14T15:16:42;6.90;;;2.90;;
18170;SDS011;9210;48.358;10.902;2023-06-14T15:19:11;4.38;;;3.05;;
18170;SDS011;9210;48.358;10.902;2023-06-14T15:21:40;4.60;;;3.10;;
18170;SDS011;9210;48.358;10.902;2023-06-14T15:24:08;4.82;;;2.72;;
18170;SDS011;9210;48.358;10.902;2023-06-14T15:26:37;7.00;;;3.20;;
18170;SDS011;9210;48.358;10.902;2023-06-14T15:29:07;8.50;;;3.30;;
18170;SDS011;9210;48.358;10.902;2023-06-14T15:31:36;4.40;;;2.90;;
18170;SDS011;9210;48.358;10.902;2023-06-14T15:34:06;5.10;;;2.92;;
18170;SDS011;9210;48.358;10.902;2023-06-14T15:36:44;4.43;;;2.83;;
18170;SDS011;9210;48.358;10.902;2023-06-14T15:39:13;7.28;;;3.25;;
18170;SDS011;9210;48.358;10.902;2023-06-14T15:45:02;8.25;;;3.20;;
18170;SDS011;9210;48.358;10.902;2023-06-14T15:47:33;8.30;;;3.00;;
18170;SDS011;9210;48.358;10.902;2023-06-14T15:50:08;10.10;;;3.20;;
18170;SDS011;9210;48.358;10.902;2023-06-14T15:52:37;7.65;;;2.50;;
18170;SDS011;9210;48.358;10.902;2023-06-14T15:55:06;5.70;;;3.03;;
18170;SDS011;9210;48.358;10.902;2023-06-14T15:57:36;5.85;;;2.85;;
18170;SDS011;9210;48.358;10.902;2023-06-14T16:00:09;6.85;;;3.20;;
18170;SDS011;9210;48.358;10.902;2023-06-14T16:02:41;7.63;;;3.45;;
18170;SDS011;9210;48.358;10.902;2023-06-14T16:05:18;5.72;;;3.13;;
18170;SDS011;9210;48.358;10.902;2023-06-14T16:07:47;4.75;;;3.42;;
18170;SDS011;9210;48.358;10.902;2023-06-14T16:10:16;3.97;;;2.90;;
18170;SDS011;9210;48.358;10.902;2023-06-14T16:12:46;4.85;;;2.80;;
18170;SDS011;9210;48.358;10.902;2023-06-14T16:15:16;6.53;;;2.60;;
18170;SDS011;9210;48.358;10.902;2023-06-14T16:17:45;8.35;;;3.00;;
18170;SDS011;9210;48.358;10.902;2023-06-14T16:20:14;5.45;;;3.13;;
18170;SDS011;9210;48.358;10.902;2023-06-14T16:22:46;5.85;;;3.33;;
18170;SDS011;9210;48.358;10.902;2023-06-14T16:25:15;6.13;;;3.08;;
18170;SDS011;9210;48.358;10.902;2023-06-14T16:27:46;7.57;;;3.00;;
18170;SDS011;9210;48.358;10.902;2023-06-14T16:30:15;17.23;;;3.20;;